Truro, Massachusetts
Current Conditions -  °F | °C
As of 6:35 AM on Saturday 25 Oct 2014 (Local Time) from KPVC Reporting Station
Clear Clear  
Wind Chill: 50°   Ceiling: Unl
Heat Index: 50°   Visibility: 10mi
Dew Point: -2°   Wind: 10mph
Humidity: 12%   Direction: 300°WNW
Pressure: 29.75"   Gusts: 17mph
Location:  42°N, 70.07°W
Report Text: KPVC 251035Z 30009G15KT 10SM CLR 10/M19 A2975 RMK AO1
Loading
Personal Weather Stations






























Interactive Weather Map New forecast layout! Learn more

10-Day Weather Forecast

Advertisements
Track Severe Weather on mobile